Time;durP1;ratioP1;P1;durP2;ratioP2;P2;SDS_P1;SDS_P2;PMS_P1;PMS_P2;Temp;Humidity;BMP_temperature;BMP_pressure;BME280_temperature;BME280_humidity;BME280_pressure;Samples;Min_cycle;Max_cycle;Signal;HPM_P1;HPM_P2
2024/01/01 06:44:34;;;;;;;5.40;2.30;;;;;;;;;;10524460;28;20414;-81
2024/01/01 06:49:35;;;;;;;7.95;2.13;;;;;;;;;;10507914;28;20036;-81
2024/01/01 06:54:45;;;;;;;8.48;2.28;;;;;;;;;;10519488;22;20049;-84
2024/01/01 06:59:46;;;;;;;8.13;2.10;;;;;;;;;;10503649;28;20094;-84
2024/01/01 07:04:47;;;;;;;7.95;2.08;;;;;;;;;;10505946;28;20117;-82
2024/01/01 07:09:48;;;;;;;6.65;1.92;;;;;;;;;;10509699;28;20121;-82
2024/01/01 07:14:49;;;;;;;4.43;1.77;;;;;;;;;;10523253;28;20025;-80
2024/01/01 07:19:52;;;;;;;6.50;2.20;;;;;;;;;;10504391;28;20029;-82
2024/01/01 07:24:53;;;;;;;6.72;1.80;;;;;;;;;;10498219;28;20025;-82
2024/01/01 07:29:55;;;;;;;8.30;1.77;;;;;;;;;;10498320;28;20518;-82
2024/01/01 07:34:56;;;;;;;5.82;2.03;;;;;;;;;;10499566;28;20027;-82
2024/01/01 07:39:57;;;;;;;5.07;1.58;;;;;;;;;;10499988;28;20035;-82
2024/01/01 07:44:58;;;;;;;6.47;2.15;;;;;;;;;;10499096;28;20065;-82
2024/01/01 07:49:59;;;;;;;6.93;1.90;;;;;;;;;;10498824;28;20468;-82
2024/01/01 07:55:01;;;;;;;6.32;1.63;;;;;;;;;;10474683;28;20031;-82
2024/01/01 08:00:02;;;;;;;5.38;1.65;;;;;;;;;;10474278;28;20476;-81
2024/01/01 08:05:03;;;;;;;4.93;1.98;;;;;;;;;;10463012;28;20120;-81
2024/01/01 08:10:04;;;;;;;7.50;1.85;;;;;;;;;;10465777;28;20033;-82
2024/01/01 08:15:06;;;;;;;5.60;1.35;;;;;;;;;;10474680;28;20067;-82
2024/01/01 08:20:07;;;;;;;4.60;1.90;;;;;;;;;;10496181;28;20034;-81
2024/01/01 08:25:08;;;;;;;5.03;1.60;;;;;;;;;;10487932;28;20056;-81
2024/01/01 08:30:09;;;;;;;;;;;;;;;;;;10467489;28;20483;-81
2024/01/01 08:35:10;;;;;;;6.97;1.77;;;;;;;;;;10466877;28;19905;-82
2024/01/01 08:40:12;;;;;;;5.50;1.80;;;;;;;;;;10469986;28;20680;-82
2024/01/01 08:45:13;;;;;;;3.90;1.35;;;;;;;;;;10470726;28;20029;-84
2024/01/01 08:50:14;;;;;;;5.22;1.80;;;;;;;;;;10470192;28;20064;-82
2024/01/01 08:55:16;;;;;;;5.43;1.65;;;;;;;;;;10472394;28;20086;-82
2024/01/01 09:00:17;;;;;;;4.93;1.80;;;;;;;;;;10476324;28;20025;-84
2024/01/01 09:05:18;;;;;;;;;;;;;;;;;;10495483;28;20089;-81
2024/01/01 09:10:20;;;;;;;4.88;1.65;;;;;;;;;;10483584;28;20020;-84
2024/01/01 09:15:21;;;;;;;4.40;1.70;;;;;;;;;;10473802;28;20033;-81
2024/01/01 09:20:22;;;;;;;4.45;1.50;;;;;;;;;;10480055;28;20049;-84
2024/01/01 09:25:23;;;;;;;5.75;1.52;;;;;;;;;;10483225;28;20093;-84
2024/01/01 09:30:24;;;;;;;5.43;1.40;;;;;;;;;;10465674;28;20040;-81
2024/01/01 09:35:25;;;;;;;4.82;1.30;;;;;;;;;;10463694;28;20035;-82
2024/01/01 09:40:26;;;;;;;4.57;1.70;;;;;;;;;;10463977;28;20119;-82
2024/01/01 09:45:28;;;;;;;3.20;1.45;;;;;;;;;;10465931;28;20128;-82
2024/01/01 09:50:29;;;;;;;5.53;1.55;;;;;;;;;;10468349;28;20025;-83
2024/01/01 09:55:31;;;;;;;2.22;1.20;;;;;;;;;;10469518;28;20072;-82
2024/01/01 10:00:32;;;;;;;4.53;1.52;;;;;;;;;;10468169;28;20089;-82
2024/01/01 10:05:33;;;;;;;6.50;1.98;;;;;;;;;;10466840;28;20087;-82
2024/01/01 10:10:34;;;;;;;4.68;2.08;;;;;;;;;;10498083;28;20033;-81
2024/01/01 10:15:36;;;;;;;5.97;1.65;;;;;;;;;;10479520;28;20397;-82
2024/01/01 10:20:38;;;;;;;3.53;1.30;;;;;;;;;;10466911;28;20037;-82
2024/01/01 10:25:39;;;;;;;5.85;1.63;;;;;;;;;;10465684;28;20024;-83
2024/01/01 10:30:46;;;;;;;5.47;1.80;;;;;;;;;;10463848;28;20031;-82
2024/01/01 10:35:47;;;;;;;3.83;1.65;;;;;;;;;;10462449;28;20021;-83
2024/01/01 10:40:49;;;;;;;6.32;3.35;;;;;;;;;;10467431;28;20040;-85
2024/01/01 10:45:51;;;;;;;4.20;1.40;;;;;;;;;;10466435;28;20032;-85
2024/01/01 10:50:51;;;;;;;;;;;;;;;;;;10466368;28;20025;-82
2024/01/01 10:56:00;;;;;;;5.97;1.60;;;;;;;;;;10467377;28;19913;-84
2024/01/01 11:01:14;;;;;;;3.50;1.27;;;;;;;;;;10467142;28;20040;-83
2024/01/01 11:06:21;;;;;;;5.90;1.48;;;;;;;;;;10468752;28;20558;-83
2024/01/01 11:11:32;;;;;;;3.17;1.30;;;;;;;;;;10458275;28;20124;-83
2024/01/01 11:16:50;;;;;;;7.55;1.60;;;;;;;;;;10483262;28;20029;-83
2024/01/01 11:21:51;;;;;;;3.95;1.10;;;;;;;;;;10457888;28;20137;-83
2024/01/01 11:26:52;;;;;;;3.38;1.48;;;;;;;;;;10459990;28;20031;-82
2024/01/01 11:32:01;;;;;;;4.72;1.50;;;;;;;;;;10467988;28;20457;-84
2024/01/01 11:37:02;;;;;;;4.25;1.33;;;;;;;;;;10467928;28;20039;-83
2024/01/01 11:42:03;;;;;;;5.22;1.58;;;;;;;;;;10471583;28;20032;-83
2024/01/01 11:47:04;;;;;;;;;;;;;;;;;;10471637;28;20036;-82
2024/01/01 11:52:06;;;;;;;4.38;1.42;;;;;;;;;;10472353;28;19915;-83
2024/01/01 11:57:07;;;;;;;3.78;1.45;;;;;;;;;;10492520;28;20033;-82
2024/01/01 12:02:10;;;;;;;5.00;1.38;;;;;;;;;;10479338;28;20067;-83
2024/01/01 12:07:11;;;;;;;4.03;1.38;;;;;;;;;;10472821;28;20036;-83
2024/01/01 12:12:15;;;;;;;4.90;1.40;;;;;;;;;;10476883;28;20032;-83
2024/01/01 12:17:16;;;;;;;3.20;1.08;;;;;;;;;;10477461;28;20029;-82
2024/01/01 12:22:21;;;;;;;5.75;1.75;;;;;;;;;;10472996;28;20025;-82
2024/01/01 12:27:22;;;;;;;4.53;1.50;;;;;;;;;;10475257;28;20029;-83
2024/01/01 12:32:24;;;;;;;3.78;1.42;;;;;;;;;;10476139;28;20045;-83
2024/01/01 12:37:25;;;;;;;;;;;;;;;;;;10492225;28;20053;-82
2024/01/01 12:42:26;;;;;;;5.88;1.40;;;;;;;;;;10493305;28;19905;-82
2024/01/01 12:47:27;;;;;;;4.78;1.38;;;;;;;;;;10470135;28;20088;-83
2024/01/01 12:57:31;;;;;;;5.35;1.95;;;;;;;;;;10440301;28;20046;-81
2024/01/01 13:02:32;;;;;;;4.53;2.05;;;;;;;;;;10440855;28;20077;-82
2024/01/01 13:07:33;;;;;;;8.82;2.08;;;;;;;;;;10445820;28;20064;-80
2024/01/01 13:12:34;;;;;;;6.10;1.65;;;;;;;;;;10426091;28;20029;-81
2024/01/01 13:17:35;;;;;;;;;;;;;;;;;;10422280;28;20021;-81
2024/01/01 13:22:36;;;;;;;7.43;2.10;;;;;;;;;;10419479;28;19905;-81
2024/01/01 13:27:37;;;;;;;6.53;1.60;;;;;;;;;;10421096;28;20292;-80
2024/01/01 13:32:38;;;;;;;5.43;1.52;;;;;;;;;;10438601;28;20596;-81
2024/01/01 13:37:39;;;;;;;6.00;1.75;;;;;;;;;;10419612;28;20030;-81
2024/01/01 13:42:40;;;;;;;7.78;2.05;;;;;;;;;;10420106;28;20191;-81
2024/01/01 13:47:41;;;;;;;4.95;1.70;;;;;;;;;;10425298;28;20059;-83
2024/01/01 13:52:43;;;;;;;7.30;2.42;;;;;;;;;;10408344;28;20175;-84
2024/01/01 13:57:44;;;;;;;4.68;1.48;;;;;;;;;;10409126;28;20025;-83
2024/01/01 14:02:45;;;;;;;7.90;2.20;;;;;;;;;;10411799;28;20029;-83
2024/01/01 14:07:48;;;;;;;;;;;;;;;;;;10430580;28;20060;-82
2024/01/01 14:12:49;;;;;;;11.30;2.92;;;;;;;;;;10432526;28;19948;-85
2024/01/01 14:17:51;;;;;;;5.05;2.00;;;;;;;;;;10433046;28;20021;-85
2024/01/01 14:22:52;;;;;;;8.15;2.70;;;;;;;;;;10432062;28;20037;-84
2024/01/01 14:27:54;;;;;;;4.50;1.67;;;;;;;;;;10423140;28;20040;-85
2024/01/01 14:32:57;;;;;;;;;;;;;;;;;;10439670;28;20053;-85
2024/01/01 14:37:59;;;;;;;10.00;2.70;;;;;;;;;;10419370;28;19905;-85
2024/01/01 14:43:03;;;;;;;12.05;3.53;;;;;;;;;;10418077;28;20041;-85
2024/01/01 14:48:04;;;;;;;8.13;2.60;;;;;;;;;;10421645;28;20026;-85
2024/01/01 14:53:05;;;;;;;;;;;;;;;;;;10437839;28;20072;-85
2024/01/01 14:58:06;;;;;;;6.57;2.00;;;;;;;;;;10418452;28;20008;-85
2024/01/01 15:03:07;;;;;;;6.15;2.05;;;;;;;;;;10421189;28;20112;-85
2024/01/01 15:08:08;;;;;;;9.38;2.13;;;;;;;;;;10426624;28;20040;-85
2024/01/01 15:13:09;;;;;;;7.75;2.50;;;;;;;;;;10441238;28;20032;-85
2024/01/01 15:18:10;;;;;;;9.18;2.50;;;;;;;;;;10440426;28;20041;-85
2024/01/01 15:23:11;;;;;;;6.07;2.35;;;;;;;;;;10424858;28;20029;-85
2024/01/01 15:28:12;;;;;;;8.20;2.65;;;;;;;;;;10423085;28;20056;-85
2024/01/01 15:33:13;;;;;;;7.75;2.22;;;;;;;;;;10421078;28;20451;-85
2024/01/01 15:38:14;;;;;;;7.63;2.28;;;;;;;;;;10415619;28;20466;-85
2024/01/01 15:43:15;;;;;;;8.35;2.50;;;;;;;;;;10416124;28;20064;-85
2024/01/01 15:48:16;;;;;;;6.13;2.28;;;;;;;;;;10414351;28;20483;-85
2024/01/01 15:53:17;;;;;;;9.02;2.92;;;;;;;;;;10418276;28;20109;-80
2024/01/01 15:58:18;;;;;;;9.02;2.97;;;;;;;;;;10453496;28;20034;-85
2024/01/01 16:03:19;;;;;;;7.32;2.42;;;;;;;;;;10421219;28;20026;-85
2024/01/01 16:08:20;;;;;;;14.60;3.60;;;;;;;;;;10420999;28;20588;-85
2024/01/01 16:13:21;;;;;;;11.73;3.35;;;;;;;;;;10418617;28;20064;-86
2024/01/01 16:18:22;;;;;;;7.07;2.17;;;;;;;;;;10418649;28;20592;-86
2024/01/01 16:23:23;;;;;;;8.35;2.53;;;;;;;;;;10423525;28;20057;-86
2024/01/01 16:28:24;;;;;;;10.38;4.03;;;;;;;;;;10440060;28;20056;-86
2024/01/01 16:33:25;;;;;;;8.40;2.00;;;;;;;;;;10422140;28;20039;-86
2024/01/01 16:38:27;;;;;;;7.65;2.20;;;;;;;;;;10421800;28;20026;-87
2024/01/01 16:43:28;;;;;;;10.95;3.22;;;;;;;;;;10420236;28;20025;-86
2024/01/01 16:48:28;;;;;;;13.88;3.40;;;;;;;;;;10436501;28;20029;-86
2024/01/01 16:53:29;;;;;;;7.25;2.30;;;;;;;;;;10435118;28;20048;-86
2024/01/01 16:58:31;;;;;;;8.13;2.58;;;;;;;;;;10415196;28;20521;-85
2024/01/01 17:03:32;;;;;;;7.97;2.85;;;;;;;;;;10414551;28;20034;-85
2024/01/01 17:08:33;;;;;;;8.70;2.97;;;;;;;;;;10414673;28;20033;-83
2024/01/01 17:13:34;;;;;;;5.93;2.45;;;;;;;;;;10429939;28;20043;-84
2024/01/01 17:18:36;;;;;;;9.25;3.10;;;;;;;;;;10412791;28;20029;-84
2024/01/01 17:23:37;;;;;;;13.48;3.60;;;;;;;;;;10410883;28;20031;-84
2024/01/01 17:28:38;;;;;;;12.80;3.70;;;;;;;;;;10410304;28;20025;-83
2024/01/01 17:33:39;;;;;;;9.15;2.30;;;;;;;;;;10411335;28;20028;-83
2024/01/01 17:38:40;;;;;;;6.10;2.50;;;;;;;;;;10412501;28;20022;-84
2024/01/01 17:43:41;;;;;;;9.23;3.78;;;;;;;;;;10411383;28;20061;-84
2024/01/01 17:48:42;;;;;;;8.05;2.83;;;;;;;;;;10411294;28;20033;-83
2024/01/01 17:53:43;;;;;;;6.25;2.47;;;;;;;;;;10413218;28;20057;-84
2024/01/01 17:58:44;;;;;;;9.52;3.15;;;;;;;;;;10410496;28;20125;-84
2024/01/01 18:03:45;;;;;;;;;;;;;;;;;;10410791;28;20036;-84
2024/01/01 18:08:46;;;;;;;9.68;2.90;;;;;;;;;;10428208;28;19905;-84
2024/01/01 18:13:48;;;;;;;8.20;2.72;;;;;;;;;;10409766;28;20096;-84
2024/01/01 18:18:49;;;;;;;14.38;3.80;;;;;;;;;;10410898;28;20022;-83
2024/01/01 18:23:52;;;;;;;7.05;2.20;;;;;;;;;;10426158;28;20025;-84
2024/01/01 18:28:53;;;;;;;8.02;3.17;;;;;;;;;;10408738;28;20060;-83
2024/01/01 18:33:54;;;;;;;4.72;2.22;;;;;;;;;;10411869;28;20049;-83
2024/01/01 18:38:55;;;;;;;7.95;2.95;;;;;;;;;;10413859;28;20056;-81
2024/01/01 18:43:56;;;;;;;9.15;3.03;;;;;;;;;;10419349;28;20031;-81
2024/01/01 18:48:57;;;;;;;6.07;2.67;;;;;;;;;;10442191;28;20017;-81
2024/01/01 18:53:58;;;;;;;6.15;2.35;;;;;;;;;;10422169;28;20072;-84
2024/01/01 18:58:59;;;;;;;5.55;2.35;;;;;;;;;;10408911;28;20107;-83
2024/01/01 19:04:00;;;;;;;5.55;2.08;;;;;;;;;;10425192;28;20116;-83
2024/01/01 19:09:01;;;;;;;;;;;;;;;;;;10407703;28;20065;-84
2024/01/01 19:14:02;;;;;;;7.97;2.78;;;;;;;;;;10413994;28;19909;-82
2024/01/01 19:19:03;;;;;;;;;;;;;;;;;;10416253;28;20026;-82
2024/01/01 19:24:07;;;;;;;8.52;3.55;;;;;;;;;;10414241;28;19905;-82
2024/01/01 19:29:08;;;;;;;6.30;2.78;;;;;;;;;;10410925;28;20025;-81
2024/01/01 19:34:09;;;;;;;9.77;2.90;;;;;;;;;;10409318;28;20033;-81
2024/01/01 19:39:10;;;;;;;;;;;;;;;;;;10411925;28;20034;-81
2024/01/01 19:44:11;;;;;;;5.30;2.20;;;;;;;;;;10411896;28;19916;-81
2024/01/01 19:49:14;;;;;;;4.63;2.28;;;;;;;;;;10416537;28;20036;-81
2024/01/01 19:54:15;;;;;;;6.55;2.40;;;;;;;;;;10427853;28;20114;-81
2024/01/01 19:59:16;;;;;;;;;;;;;;;;;;10433591;28;20076;-81
2024/01/01 20:04:19;;;;;;;7.38;2.33;;;;;;;;;;10446792;28;20008;-81
2024/01/01 20:09:20;;;;;;;6.68;2.20;;;;;;;;;;10428459;28;20040;-81
